Time;durP1;ratioP1;P1;durP2;ratioP2;P2;SDS_P1;SDS_P2;PMS_P1;PMS_P2;Temp;Humidity;BMP_temperature;BMP_pressure;BME280_temperature;BME280_humidity;BME280_pressure;Samples;Min_cycle;Max_cycle;Signal;HPM_P1;HPM_P2
2023/01/26 00:01:15;;;;;;;14.73;10.37;;;1.50;99.90;2.70;97171.00;;;;5059839;28;20974;-85
2023/01/26 00:04:04;;;;;;;18.67;11.07;;;1.70;99.90;2.80;97179.00;;;;5071310;28;20442;-86
2023/01/26 00:06:53;;;;;;;14.40;10.40;;;1.50;99.90;2.90;97179.00;;;;5052173;28;20423;-86
2023/01/26 00:09:43;;;;;;;23.70;10.23;;;1.50;99.90;2.80;97177.00;;;;5068264;28;20418;-88
2023/01/26 00:12:32;;;;;;;15.50;10.33;;;1.80;99.90;2.80;97176.00;;;;5068810;28;20461;-86
2023/01/26 00:15:21;;;;;;;16.73;11.93;;;2.10;99.90;2.80;97180.00;;;;5059791;28;20497;-87
2023/01/26 00:18:10;;;;;;;15.10;9.70;;;1.70;99.90;2.90;97183.00;;;;5070860;28;20430;-87
2023/01/26 00:21:00;;;;;;;19.10;11.47;;;1.50;99.90;2.80;97178.00;;;;5071208;28;21407;-86
2023/01/26 00:23:50;;;;;;;17.90;9.93;;;1.50;99.90;2.80;97177.00;;;;5063035;28;20898;-86
2023/01/26 00:26:40;;;;;;;18.37;9.67;;;2.80;99.90;2.80;97172.00;;;;5065967;28;20418;-85
2023/01/26 00:29:29;;;;;;;17.17;10.20;;;1.90;99.90;2.80;97169.00;;;;5067336;28;20457;-86
2023/01/26 00:32:18;;;;;;;15.60;10.17;;;1.50;99.90;2.80;97174.00;;;;5070622;28;20532;-88
2023/01/26 00:35:08;;;;;;;16.83;11.13;;;2.20;99.90;2.80;97166.00;;;;5053722;28;20463;-88
2023/01/26 00:37:56;;;;;;;17.83;11.13;;;1.50;99.90;2.70;97171.00;;;;5050390;28;20432;-86
2023/01/26 00:40:45;;;;;;;18.23;11.17;;;1.50;99.90;2.70;97174.00;;;;5063388;28;20471;-88
2023/01/26 00:43:35;;;;;;;13.10;9.30;;;2.10;99.90;2.70;97168.00;;;;5070325;28;20581;-86
2023/01/26 00:46:24;;;;;;;13.83;10.23;;;1.40;99.90;2.70;97174.00;;;;5069584;28;20419;-85
2023/01/26 00:49:13;;;;;;;17.87;9.87;;;1.40;99.90;2.70;97161.00;;;;5068849;28;20430;-86
2023/01/26 00:52:03;;;;;;;20.07;10.50;;;1.40;99.90;2.60;97168.00;;;;5069874;28;20852;-87
2023/01/26 00:54:51;;;;;;;22.73;12.30;;;1.40;99.90;2.60;97165.00;;;;5070366;28;20832;-86
2023/01/26 00:57:40;;;;;;;19.30;9.80;;;1.30;99.90;2.60;97164.00;;;;5069988;28;20434;-86
2023/01/26 01:00:32;;;;;;;16.17;10.37;;;1.90;99.90;2.70;97161.00;;;;5069393;28;20454;-86
2023/01/26 01:03:21;;;;;;;18.13;10.87;;;1.40;99.90;2.70;97160.00;;;;5065778;28;20438;-86
2023/01/26 01:06:09;;;;;;;14.33;10.33;;;1.40;99.90;2.70;97154.00;;;;5065520;28;20433;-86
2023/01/26 01:08:58;;;;;;;18.97;9.37;;;1.40;99.90;2.60;97156.00;;;;5068631;28;20427;-86
2023/01/26 01:11:47;;;;;;;18.87;10.43;;;2.00;99.90;2.60;97158.00;;;;5069780;28;20438;-87
2023/01/26 01:14:36;;;;;;;19.50;11.20;;;1.40;99.90;2.60;97156.00;;;;5063233;28;20419;-88
2023/01/26 01:17:26;;;;;;;18.63;11.13;;;1.80;99.90;2.70;97153.00;;;;5067594;28;20423;-85
2023/01/26 01:20:15;;;;;;;19.83;10.07;;;1.60;99.90;2.50;97153.00;;;;5068274;28;20434;-86
2023/01/26 01:23:04;;;;;;;17.30;9.70;;;1.40;99.90;2.60;97145.00;;;;5065015;28;20446;-86
2023/01/26 01:25:57;;;;;;;13.83;9.73;;;1.40;99.90;2.70;97147.00;;;;5069091;28;20454;-86
2023/01/26 01:28:46;;;;;;;19.00;10.73;;;1.40;99.90;2.70;97152.00;;;;5067013;28;20422;-85
2023/01/26 01:31:35;;;;;;;21.63;11.97;;;1.40;99.90;2.70;97148.00;;;;5069051;28;20438;-85
2023/01/26 01:34:25;;;;;;;17.57;10.17;;;1.80;99.90;2.80;97147.00;;;;5069286;28;20423;-85
2023/01/26 01:37:15;;;;;;;16.03;9.33;;;1.40;99.90;2.80;97145.00;;;;5057852;28;20950;-85
2023/01/26 01:40:04;;;;;;;16.13;10.83;;;1.50;99.90;2.80;97149.00;;;;5063185;28;20415;-83
2023/01/26 01:42:53;;;;;;;16.17;10.90;;;1.40;99.90;2.80;97152.00;;;;5050317;28;20447;-86
2023/01/26 01:45:44;;;;;;;17.60;10.87;;;1.40;99.90;2.80;97141.00;;;;5061964;28;20956;-87
2023/01/26 01:48:43;;;;;;;15.37;10.17;;;1.90;99.90;2.80;97139.00;;;;5068077;28;20426;-86
2023/01/26 01:51:40;;;;;;;19.33;11.13;;;1.60;99.90;2.80;97139.00;;;;5069254;28;20422;-85
2023/01/26 01:54:33;;;;;;;14.47;9.13;;;1.70;99.90;2.70;97131.00;;;;5068473;28;20426;-86
2023/01/26 01:57:27;;;;;;;21.27;9.93;;;1.40;99.90;2.60;97124.00;;;;5059195;28;21088;-84
2023/01/26 02:00:20;;;;;;;15.87;11.33;;;2.10;99.90;2.70;97132.00;;;;5055891;28;20430;-85
2023/01/26 02:03:14;;;;;;;18.87;11.20;;;1.40;99.90;2.50;97119.00;;;;5068733;28;20450;-84
2023/01/26 02:06:08;;;;;;;16.77;10.47;;;1.40;99.90;2.60;97116.00;;;;5068795;28;20465;-86
2023/01/26 02:08:59;;;;;;;18.77;12.00;;;1.40;99.90;2.50;97119.00;;;;5067505;28;20427;-85
2023/01/26 02:11:47;;;;;;;20.23;11.53;;;1.40;99.90;2.60;97118.00;;;;5071622;28;20438;-86
2023/01/26 02:14:36;;;;;;;20.23;9.07;;;2.60;99.90;2.60;97105.00;;;;5054153;28;21282;-86
2023/01/26 02:17:25;;;;;;;15.57;9.20;;;2.80;99.90;2.20;97104.00;;;;5054911;28;20427;-85
2023/01/26 02:20:20;;;;;;;19.37;10.40;;;1.30;99.90;2.30;97112.00;;;;5072218;28;20422;-84
2023/01/26 02:23:21;;;;;;;20.00;9.90;;;1.20;99.90;2.50;97112.00;;;;5060758;28;20469;-85
2023/01/26 02:26:14;;;;;;;16.40;9.17;;;1.20;99.90;2.50;97102.00;;;;5071538;28;20430;-85
2023/01/26 02:29:06;;;;;;;19.43;10.43;;;1.70;99.90;2.60;97100.00;;;;5070544;28;20941;-86
2023/01/26 02:31:55;;;;;;;21.40;11.23;;;1.30;99.90;2.60;97102.00;;;;5072006;28;20423;-85
2023/01/26 02:34:44;;;;;;;20.17;10.77;;;1.80;99.90;2.60;97088.00;;;;5071468;28;20419;-86
2023/01/26 02:37:33;;;;;;;17.20;9.93;;;1.40;99.90;2.60;97081.00;;;;5058748;28;20427;-85
2023/01/26 02:40:34;;;;;;;13.57;9.13;;;1.30;99.90;2.60;97071.00;;;;5055663;28;20431;-85
2023/01/26 02:43:25;;;;;;;15.20;9.13;;;1.30;99.90;2.50;97070.00;;;;5055950;28;20541;-86
2023/01/26 02:46:14;;;;;;;18.03;10.30;;;2.40;99.90;2.50;97071.00;;;;5069031;28;20445;-86
2023/01/26 02:52:08;;;;;;;18.43;8.77;;;1.30;99.90;2.50;97060.00;;;;5038666;28;21029;-85
2023/01/26 02:58:05;;;;;;;12.00;9.20;;;1.20;99.90;2.40;97052.00;;;;5066247;28;20455;-85
2023/01/26 03:00:55;;;;;;;17.00;9.87;;;1.50;99.90;2.50;97045.00;;;;5060454;28;20819;-87
2023/01/26 03:03:44;;;;;;;13.40;8.67;;;1.20;99.90;2.50;97051.00;;;;5063147;28;20447;-85
2023/01/26 03:06:33;;;;;;;19.17;10.70;;;1.20;99.90;2.50;97043.00;;;;5061164;28;20427;-84
2023/01/26 03:09:22;;;;;;;16.10;9.03;;;1.20;99.90;2.50;97040.00;;;;5060392;28;20430;-85
2023/01/26 03:12:11;;;;;;;13.07;9.43;;;1.20;99.90;2.50;97033.00;;;;5065241;28;20427;-86
2023/01/26 03:27:33;;;;;;;14.53;8.03;;;1.20;99.90;2.50;97025.00;;;;5062076;28;20430;-87
2023/01/26 03:30:22;;;;;;;12.73;8.70;;;1.70;99.90;2.40;97013.00;;;;5071153;28;20437;-85
2023/01/26 03:33:12;;;;;;;14.67;7.93;;;1.30;99.90;2.30;97007.00;;;;5066452;28;20446;-85
2023/01/26 03:36:01;;;;;;;19.40;8.97;;;1.10;99.90;2.40;97017.00;;;;5064150;28;20435;-85
2023/01/26 03:38:49;;;;;;;9.73;7.27;;;1.10;99.90;2.40;97014.00;;;;5063128;28;20435;-87
2023/01/26 03:57:10;;;;;;;10.17;7.20;;;1.10;99.90;2.30;96988.00;;;;5059990;28;20455;-85
2023/01/26 03:59:59;;;;;;;10.90;7.10;;;1.10;99.90;2.40;96978.00;;;;5050212;28;20416;-84
2023/01/26 04:09:06;;;;;;;16.67;9.30;;;1.30;99.90;2.40;96978.00;;;;5060355;28;20433;-84
2023/01/26 04:11:55;;;;;;;20.90;8.67;;;1.10;99.90;2.40;96964.00;;;;5063639;28;20439;-84
2023/01/26 04:24:08;;;;;;;15.23;9.70;;;1.80;99.90;2.30;96962.00;;;;5070119;28;20477;-84
2023/01/26 04:26:57;;;;;;;14.47;9.37;;;1.00;99.90;2.40;96952.00;;;;5069705;28;20431;-85
2023/01/26 04:29:46;;;;;;;13.90;8.23;;;1.10;99.90;2.40;96954.00;;;;5068673;28;20419;-85
2023/01/26 04:32:34;;;;;;;13.50;8.00;;;1.10;99.90;2.30;96951.00;;;;5069768;28;20454;-86
2023/01/26 04:35:23;;;;;;;12.70;8.00;;;1.80;99.90;2.40;96936.00;;;;5065720;28;20438;-84
2023/01/26 04:38:12;;;;;;;10.23;7.70;;;1.70;99.90;2.30;96944.00;;;;5055479;28;20771;-86
2023/01/26 04:41:02;;;;;;;14.10;8.30;;;1.00;99.90;2.40;96931.00;;;;5070285;28;20423;-84
2023/01/26 04:43:51;;;;;;;13.43;9.40;;;1.00;99.90;2.40;96939.00;;;;5060696;28;20481;-84
2023/01/26 04:46:40;;;;;;;14.27;8.33;;;2.20;99.90;2.40;96935.00;;;;5062098;28;20461;-85
2023/01/26 04:49:28;;;;;;;13.63;8.40;;;1.40;99.90;2.30;96931.00;;;;5059716;28;20434;-85
2023/01/26 04:52:17;;;;;;;15.33;9.97;;;1.10;99.90;2.30;96929.00;;;;5070317;28;20426;-84
2023/01/26 04:55:06;;;;;;;9.93;6.97;;;1.40;99.90;2.20;96938.00;;;;5068947;28;20425;-84
2023/01/26 04:57:57;;;;;;;16.90;9.13;;;1.00;99.90;2.20;96932.00;;;;5067512;28;20497;-85
2023/01/26 05:00:50;;;;;;;17.70;8.83;;;0.90;99.90;2.30;96933.00;;;;5070041;28;20433;-86
2023/01/26 05:03:39;;;;;;;13.43;7.93;;;1.00;99.90;2.30;96927.00;;;;5070034;28;20462;-85
2023/01/26 05:06:28;;;;;;;17.67;8.20;;;1.20;99.90;2.30;96926.00;;;;5068321;28;20977;-84
2023/01/26 05:09:17;;;;;;;18.17;8.60;;;1.10;99.90;2.20;96943.00;;;;5066759;28;20423;-85
2023/01/26 05:15:11;;;;;;;13.47;8.13;;;1.00;99.90;2.10;96929.00;;;;5065998;28;20429;-85
2023/01/26 05:18:00;;;;;;;11.73;7.57;;;1.00;99.90;2.00;96918.00;;;;5062087;28;20423;-85
2023/01/26 05:20:48;;;;;;;11.27;7.63;;;1.30;99.90;2.20;96922.00;;;;5065218;28;20415;-85
2023/01/26 05:23:37;;;;;;;15.13;7.97;;;0.90;99.90;2.20;96928.00;;;;5068923;28;20482;-85
2023/01/26 05:26:26;;;;;;;16.93;9.27;;;0.90;99.90;2.10;96921.00;;;;5069765;28;20426;-86
2023/01/26 05:29:15;;;;;;;13.37;8.83;;;1.40;99.90;2.10;96919.00;;;;5063778;28;20453;-88
2023/01/26 05:32:06;;;;;;;12.57;7.73;;;0.90;99.90;2.30;96925.00;;;;5070619;28;20490;-85
2023/01/26 05:34:55;;;;;;;11.10;8.33;;;0.90;99.90;2.20;96923.00;;;;5064586;28;20467;-85
2023/01/26 05:37:44;;;;;;;13.90;8.10;;;1.10;99.90;2.20;96928.00;;;;5056022;28;20933;-85
2023/01/26 05:40:33;;;;;;;15.63;9.20;;;1.60;99.90;2.20;96915.00;;;;5066355;28;20449;-85
2023/01/26 05:43:22;;;;;;;12.27;8.93;;;1.50;99.90;2.30;96925.00;;;;5067342;28;20473;-85
2023/01/26 05:46:11;;;;;;;13.97;8.83;;;1.70;99.90;2.20;96918.00;;;;5062274;28;20422;-85
2023/01/26 05:49:01;;;;;;;11.13;8.53;;;1.30;99.90;2.10;96912.00;;;;5066499;28;20949;-87
2023/01/26 05:51:49;;;;;;;11.70;8.03;;;1.00;99.90;2.20;96918.00;;;;5065181;28;20872;-86
2023/01/26 05:54:38;;;;;;;11.23;7.53;;;1.00;99.90;2.20;96915.00;;;;5068536;28;20410;-86
2023/01/26 05:57:27;;;;;;;14.73;9.83;;;1.00;99.90;2.20;96927.00;;;;5065650;28;20435;-86
2023/01/26 06:00:17;;;;;;;11.50;7.97;;;1.70;99.90;2.30;96918.00;;;;5061346;28;20442;-85
2023/01/26 06:03:06;;;;;;;16.43;8.70;;;1.00;99.90;2.20;96933.00;;;;5065569;28;20512;-85
2023/01/26 06:05:56;;;;;;;17.33;8.07;;;1.00;99.90;2.10;96929.00;;;;5060837;28;20926;-85
2023/01/26 06:08:45;;;;;;;16.87;9.47;;;1.70;99.90;2.10;96924.00;;;;5061230;28;20435;-84
2023/01/26 06:11:34;;;;;;;13.07;7.93;;;1.90;99.90;2.10;96926.00;;;;5068234;28;20480;-86
2023/01/26 06:14:22;;;;;;;15.47;9.30;;;1.00;99.90;2.20;96924.00;;;;5067890;28;20505;-87
2023/01/26 06:17:11;;;;;;;13.40;9.03;;;1.00;99.90;2.20;96923.00;;;;5069072;28;20960;-87
2023/01/26 06:20:00;;;;;;;14.23;8.63;;;1.80;99.90;2.20;96924.00;;;;5067701;28;20427;-84
2023/01/26 06:22:50;;;;;;;16.87;10.10;;;1.40;99.90;2.20;96918.00;;;;5061454;28;20458;-85
2023/01/26 06:25:39;;;;;;;14.20;8.27;;;1.00;99.90;2.30;96917.00;;;;5067322;28;20415;-86
2023/01/26 06:28:28;;;;;;;13.20;8.70;;;1.00;99.90;2.30;96925.00;;;;5062176;28;20443;-85
2023/01/26 06:31:17;;;;;;;11.03;8.77;;;1.00;99.90;2.30;96924.00;;;;5064148;28;20480;-86
2023/01/26 06:34:07;;;;;;;22.27;10.77;;;1.00;99.90;2.40;96919.00;;;;5065670;28;20504;-86
2023/01/26 06:36:56;;;;;;;15.80;9.57;;;2.00;99.90;2.30;96917.00;;;;5062616;28;20941;-86
2023/01/26 06:39:49;;;;;;;21.43;12.67;;;1.00;99.90;2.40;96915.00;;;;5057447;28;20434;-86
2023/01/26 06:42:38;;;;;;;18.67;11.57;;;-0.40;99.90;2.20;96920.00;;;;5065355;28;20454;-84
2023/01/26 06:45:27;;;;;;;12.83;7.80;;;1.00;99.90;2.10;96911.00;;;;5065647;28;20501;-86
2023/01/26 06:48:15;;;;;;;15.23;8.53;;;2.10;99.90;2.20;96909.00;;;;5067295;28;20443;-85
2023/01/26 06:51:42;;;;;;;15.10;8.97;;;1.00;99.90;2.30;96907.00;;;;5069368;28;20438;-84
2023/01/26 06:54:31;;;;;;;16.27;9.63;;;1.00;99.90;2.30;96911.00;;;;5068828;28;20427;-87
2023/01/26 06:57:22;;;;;;;13.33;9.13;;;1.30;99.90;2.10;96919.00;;;;5062605;28;20443;-85
2023/01/26 07:04:27;;;;;;;15.07;10.30;;;1.50;99.90;2.20;96913.00;;;;5066971;22;20540;-65
2023/01/26 07:07:16;;;;;;;17.27;10.00;;;1.00;99.90;2.20;96914.00;;;;5046672;28;20439;-65
2023/01/26 07:10:07;;;;;;;14.73;8.87;;;1.00;99.90;2.20;96913.00;;;;5042961;28;20419;-65
2023/01/26 07:12:57;;;;;;;22.93;10.50;;;1.00;99.90;2.20;96906.00;;;;5042438;28;20524;-65
2023/01/26 07:15:46;;;;;;;12.23;8.63;;;1.00;99.90;2.40;96907.00;;;;5036959;28;20447;-65
2023/01/26 07:18:35;;;;;;;11.77;9.00;;;1.00;99.90;2.20;96901.00;;;;5034679;28;20450;-65
2023/01/26 07:21:24;;;;;;;14.37;9.43;;;1.10;99.90;2.30;96905.00;;;;5044894;28;20412;-64
2023/01/26 07:24:13;;;;;;;14.73;10.40;;;1.10;99.90;2.40;96894.00;;;;5050674;28;20892;-64
2023/01/26 07:27:02;;;;;;;14.90;10.30;;;1.10;99.90;2.40;96905.00;;;;5040817;28;20428;-64
2023/01/26 07:29:52;;;;;;;18.07;10.20;;;1.10;99.90;2.40;96902.00;;;;5040545;28;20969;-64
2023/01/26 07:32:41;;;;;;;17.17;10.47;;;1.10;99.90;2.50;96904.00;;;;5043970;28;20435;-65
2023/01/26 07:35:29;;;;;;;13.17;9.13;;;1.10;99.90;2.40;96902.00;;;;5037193;28;20451;-65
2023/01/26 07:38:18;;;;;;;15.40;10.23;;;1.10;99.90;2.40;96881.00;;;;5043095;28;20493;-64
2023/01/26 07:41:10;;;;;;;15.00;10.23;;;1.10;99.90;2.50;96896.00;;;;5050964;28;20787;-65
2023/01/26 07:43:59;;;;;;;18.10;11.13;;;1.20;99.90;2.50;96905.00;;;;5043884;28;20473;-65
2023/01/26 07:46:49;;;;;;;17.07;10.47;;;1.20;99.90;2.50;96907.00;;;;5038176;28;20802;-65
2023/01/26 07:49:37;;;;;;;13.57;9.77;;;1.20;99.90;2.50;96909.00;;;;5045065;28;20427;-65
2023/01/26 07:52:26;;;;;;;15.73;10.70;;;1.20;99.90;2.50;96913.00;;;;5051569;28;20438;-65
2023/01/26 07:55:15;;;;;;;18.17;10.53;;;1.20;99.90;2.50;96914.00;;;;5050805;28;20446;-65
2023/01/26 07:58:04;;;;;;;18.27;10.67;;;1.20;99.90;2.60;96915.00;;;;5037450;28;20423;-65
2023/01/26 08:00:53;;;;;;;22.43;12.50;;;1.30;99.90;2.60;96912.00;;;;5045435;28;20481;-65
2023/01/26 08:03:44;;;;;;;16.30;10.30;;;1.30;99.90;2.70;96914.00;;;;5043560;28;20472;-64
2023/01/26 08:06:33;;;;;;;15.53;9.80;;;1.30;99.90;2.50;96909.00;;;;5049731;28;20430;-65
2023/01/26 08:09:21;;;;;;;12.10;9.20;;;1.30;99.90;2.50;96908.00;;;;5043109;28;20424;-65
2023/01/26 08:12:10;;;;;;;16.37;11.20;;;1.30;99.90;2.50;96917.00;;;;5035641;28;20431;-65
2023/01/26 08:14:59;;;;;;;14.50;9.77;;;1.30;99.90;2.60;96921.00;;;;5041070;28;20455;-65
2023/01/26 08:17:47;;;;;;;16.47;11.00;;;1.30;99.90;2.80;96915.00;;;;5038659;28;20415;-65
2023/01/26 08:20:37;;;;;;;17.80;12.10;;;1.30;99.90;2.70;96915.00;;;;5046804;28;20423;-65
2023/01/26 08:23:27;;;;;;;15.53;11.10;;;1.30;99.90;2.60;96917.00;;;;5037797;28;20449;-64
2023/01/26 08:26:16;;;;;;;16.13;9.77;;;1.30;99.90;2.60;96906.00;;;;5038079;28;20433;-65
2023/01/26 08:29:06;;;;;;;19.10;10.40;;;1.30;99.90;2.50;96925.00;;;;5038422;28;20416;-65
2023/01/26 08:31:55;;;;;;;13.90;10.00;;;1.40;99.90;2.50;96920.00;;;;5044070;28;20831;-65
2023/01/26 08:34:44;;;;;;;18.70;11.33;;;1.40;99.90;2.50;96923.00;;;;5038929;28;20474;-65
2023/01/26 08:37:34;;;;;;;17.50;11.07;;;1.50;99.90;2.70;96917.00;;;;5034725;28;20440;-66
2023/01/26 08:40:23;;;;;;;16.27;10.63;;;1.40;99.90;2.60;96925.00;;;;5045129;28;20809;-63
2023/01/26 08:43:12;;;;;;;14.00;9.33;;;1.40;99.90;2.50;96921.00;;;;5043770;28;20521;-65
2023/01/26 08:46:01;;;;;;;16.50;9.87;;;1.40;99.90;2.50;96923.00;;;;5042289;28;20476;-64
2023/01/26 08:48:49;;;;;;;15.87;10.00;;;1.40;99.90;2.50;96924.00;;;;5045075;28;20423;-65
2023/01/26 08:51:38;;;;;;;12.97;8.80;;;1.50;99.90;2.40;96912.00;;;;5049679;28;20446;-66
2023/01/26 08:54:28;;;;;;;15.67;8.70;;;1.40;99.90;2.40;96915.00;;;;5048125;28;20450;-64
2023/01/26 08:57:17;;;;;;;14.03;8.90;;;1.30;99.90;2.40;96917.00;;;;5050336;28;20438;-64
2023/01/26 09:00:07;;;;;;;36.57;18.00;;;1.30;99.90;2.60;96913.00;;;;5043163;28;20538;-65
2023/01/26 09:03:00;;;;;;;18.77;11.63;;;0.10;99.90;2.40;96921.00;;;;5038076;28;20439;-65
2023/01/26 09:05:49;;;;;;;21.37;12.37;;;1.30;99.90;2.60;96921.00;;;;5036534;28;20476;-64
2023/01/26 09:08:38;;;;;;;13.30;9.07;;;1.40;99.90;2.60;96923.00;;;;5044563;28;20461;-65
2023/01/26 09:11:28;;;;;;;13.20;10.30;;;1.40;99.90;2.50;96922.00;;;;5044068;28;20845;-65
2023/01/26 09:14:17;;;;;;;13.10;8.50;;;1.40;99.90;2.30;96910.00;;;;5038717;28;20986;-65
2023/01/26 09:17:06;;;;;;;10.20;7.33;;;1.30;99.90;2.20;96927.00;;;;5043331;28;20481;-64
2023/01/26 09:19:54;;;;;;;10.77;7.27;;;1.30;99.90;2.20;96929.00;;;;5042034;28;20962;-64
2023/01/26 09:22:43;;;;;;;11.47;6.87;;;1.30;99.90;2.30;96925.00;;;;5037570;28;20439;-65
2023/01/26 09:25:32;;;;;;;11.53;6.70;;;1.30;99.90;2.10;96919.00;;;;5034484;28;20475;-64
2023/01/26 09:28:22;;;;;;;10.67;7.20;;;1.20;99.90;2.00;96924.00;;;;5040115;28;20427;-65
2023/01/26 09:31:11;;;;;;;10.27;6.43;;;1.30;99.90;2.00;96916.00;;;;5038434;28;21024;-64
2023/01/26 09:34:00;;;;;;;12.27;7.03;;;1.10;99.90;2.10;96916.00;;;;5035843;28;20503;-65
2023/01/26 09:36:49;;;;;;;10.43;8.47;;;1.10;99.90;2.20;96925.00;;;;5043994;28;20416;-64
2023/01/26 09:39:38;;;;;;;16.03;8.03;;;1.10;99.90;2.20;96929.00;;;;5049411;28;20812;-65
2023/01/26 09:42:38;;;;;;;11.83;7.50;;;1.20;99.90;2.30;96924.00;;;;5049994;28;20431;-64
2023/01/26 09:45:34;;;;;;;10.57;7.47;;;2.50;99.90;2.40;96928.00;;;;5038450;28;20463;-64
2023/01/26 09:48:34;;;;;;;15.80;10.93;;;1.20;99.90;2.50;96929.00;;;;5040775;28;20424;-65
2023/01/26 09:51:29;;;;;;;16.13;11.30;;;1.30;99.90;2.50;96925.00;;;;5047297;28;20430;-63
2023/01/26 09:54:27;;;;;;;14.60;10.03;;;1.30;99.90;2.60;96915.00;;;;5039583;28;20981;-63
2023/01/26 09:57:18;;;;;;;15.87;8.67;;;1.30;99.90;2.20;96914.00;;;;5048486;28;20451;-65
2023/01/26 10:00:10;;;;;;;16.40;9.17;;;1.30;99.90;1.90;96905.00;;;;5043528;28;20447;-63
2023/01/26 10:03:17;;;;;;;9.13;4.90;;;1.20;99.90;1.80;96897.00;;;;5042292;28;20742;-63
2023/01/26 10:06:15;;;;;;;10.70;6.53;;;1.10;99.90;1.60;96896.00;;;;5034708;28;20470;-67
2023/01/26 10:09:14;;;;;;;12.07;7.37;;;1.00;99.90;2.00;96895.00;;;;5049299;28;20427;-64
2023/01/26 10:12:07;;;;;;;13.23;9.03;;;1.10;99.90;1.90;96891.00;;;;5048248;28;20458;-64
2023/01/26 10:15:03;;;;;;;12.37;8.47;;;1.10;99.90;2.00;96888.00;;;;5050153;28;20454;-64
2023/01/26 10:17:53;;;;;;;12.87;8.80;;;1.10;99.90;1.90;96882.00;;;;5048427;28;20435;-64
2023/01/26 10:20:48;;;;;;;13.30;7.97;;;1.00;99.90;1.90;96876.00;;;;5048938;28;20423;-64
2023/01/26 10:23:47;;;;;;;18.87;10.63;;;1.10;99.90;1.90;96872.00;;;;5041165;28;20482;-63
2023/01/26 10:26:36;;;;;;;11.83;7.80;;;1.10;99.90;2.20;96866.00;;;;5036341;28;20855;-63
2023/01/26 10:29:24;;;;;;;14.40;9.07;;;1.10;99.90;1.80;96846.00;;;;5046702;28;20454;-64
2023/01/26 10:32:16;;;;;;;15.07;8.73;;;1.20;99.90;2.10;96862.00;;;;5049843;28;20427;-65
2023/01/26 10:35:08;;;;;;;13.30;8.93;;;1.10;99.90;2.40;96869.00;;;;5048594;28;20451;-65
2023/01/26 10:37:59;;;;;;;16.97;9.20;;;1.20;99.90;2.50;96860.00;;;;5043778;28;20498;-65
2023/01/26 10:40:47;;;;;;;11.93;9.03;;;1.30;99.90;2.80;96852.00;;;;5044623;28;20427;-65
2023/01/26 10:43:41;;;;;;;16.93;9.00;;;1.30;99.90;2.50;96846.00;;;;5047944;28;20424;-64
2023/01/26 10:46:34;;;;;;;14.53;8.97;;;1.40;99.90;2.60;96847.00;;;;5041853;28;20475;-64
2023/01/26 10:49:26;;;;;;;11.57;8.20;;;1.40;99.90;2.80;96841.00;;;;5042704;28;20428;-65
2023/01/26 10:52:17;;;;;;;14.60;7.57;;;1.40;99.90;2.50;96837.00;;;;5046714;28;20797;-65
2023/01/26 10:55:16;;;;;;;16.40;10.17;;;1.40;99.90;2.90;96835.00;;;;5038884;28;20479;-64
2023/01/26 10:58:05;;;;;;;29.00;15.40;;;1.50;99.90;2.80;96839.00;;;;5046587;28;20422;-64
2023/01/26 11:00:56;;;;;;;24.77;13.30;;;1.50;99.90;2.90;96845.00;;;;5050795;28;20427;-64
2023/01/26 11:04:04;;;;;;;21.33;13.20;;;1.70;99.90;3.00;96837.00;;;;5047223;28;20828;-64
2023/01/26 11:06:53;;;;;;;19.47;11.50;;;1.50;99.90;2.90;96834.00;;;;5046577;28;20455;-63
2023/01/26 11:09:42;;;;;;;15.37;10.03;;;1.50;99.90;2.60;96817.00;;;;5045042;28;20475;-64
2023/01/26 11:12:32;;;;;;;17.23;10.67;;;1.50;99.90;2.60;96820.00;;;;5043332;28;20795;-65
2023/01/26 11:15:23;;;;;;;16.07;10.50;;;1.50;99.90;2.90;96829.00;;;;5048484;28;20454;-64
2023/01/26 11:18:22;;;;;;;18.70;11.33;;;1.50;99.90;2.90;96824.00;;;;5040507;28;20861;-64
2023/01/26 11:21:16;;;;;;;19.23;11.40;;;1.50;99.90;3.00;96817.00;;;;5046059;28;20424;-64
2023/01/26 11:24:12;;;;;;;15.87;10.77;;;1.50;99.90;3.00;96817.00;;;;5038750;28;20455;-64
2023/01/26 11:27:25;;;;;;;15.47;10.00;;;1.60;99.90;2.90;96815.00;;;;5041343;28;20850;-64
2023/01/26 11:30:43;;;;;;;19.30;9.90;;;1.60;99.90;2.80;96807.00;;;;5045306;28;20439;-64
2023/01/26 11:33:43;;;;;;;18.00;10.23;;;1.50;99.90;2.40;96796.00;;;;5041047;28;20424;-64
2023/01/26 11:36:42;;;;;;;13.33;8.20;;;1.40;99.90;2.30;96799.00;;;;5039765;28;20855;-64
2023/01/26 11:39:41;;;;;;;12.60;8.13;;;1.40;99.90;2.10;96789.00;;;;5046882;28;20439;-64
2023/01/26 11:42:38;;;;;;;10.67;6.13;;;1.30;99.90;2.00;96790.00;;;;5051273;28;20861;-64
2023/01/26 11:45:34;;;;;;;14.67;8.13;;;1.20;99.90;2.20;96772.00;;;;5046536;28;21036;-64
2023/01/26 11:48:39;;;;;;;11.17;7.20;;;1.10;99.90;2.00;96768.00;;;;5043724;28;20435;-62
2023/01/26 11:51:44;;;;;;;7.70;5.87;;;1.10;99.90;1.70;96758.00;;;;5047709;28;20440;-64
2023/01/26 11:54:55;;;;;;;13.57;7.53;;;1.00;99.90;1.90;96755.00;;;;5047217;28;20451;-64
2023/01/26 11:58:05;;;;;;;10.93;6.73;;;1.00;99.90;2.10;96765.00;;;;5034041;28;20485;-63
2023/01/26 12:00:59;;;;;;;8.03;6.70;;;1.00;99.90;1.90;96752.00;;;;5034463;28;20424;-65
2023/01/26 12:03:50;;;;;;;15.13;8.10;;;1.00;99.90;2.00;96756.00;;;;5046265;28;20439;-64
2023/01/26 12:06:42;;;;;;;10.67;7.23;;;1.00;99.90;1.80;96740.00;;;;5041097;28;20463;-65
2023/01/26 12:09:37;;;;;;;11.77;8.43;;;1.00;99.90;1.70;96742.00;;;;5042126;28;20419;-63
2023/01/26 12:12:36;;;;;;;9.47;6.77;;;0.90;99.90;2.00;96745.00;;;;5037244;28;20443;-64
2023/01/26 12:15:32;;;;;;;8.90;4.80;;;1.00;99.90;1.70;96732.00;;;;5044775;28;20985;-64
2023/01/26 12:18:29;;;;;;;16.87;9.50;;;1.00;99.90;2.10;96736.00;;;;5045352;28;20432;-64
2023/01/26 12:21:37;;;;;;;11.30;6.33;;;1.00;99.90;1.70;96719.00;;;;5033622;28;20446;-65
2023/01/26 12:24:36;;;;;;;12.83;8.13;;;1.00;99.90;2.20;96727.00;;;;5041668;28;20562;-65
2023/01/26 12:27:54;;;;;;;10.07;8.00;;;1.00;99.90;2.20;96724.00;;;;5046396;28;21001;-64
2023/01/26 12:30:53;;;;;;;14.90;9.17;;;1.10;99.90;2.10;96719.00;;;;5049799;28;20420;-64
2023/01/26 12:33:44;;;;;;;13.90;8.80;;;1.10;99.90;2.00;96715.00;;;;5050257;28;20958;-65
2023/01/26 12:36:44;;;;;;;13.33;7.43;;;1.10;99.90;1.90;96702.00;;;;5040898;28;20431;-65
2023/01/26 12:39:37;;;;;;;12.77;6.30;;;1.00;99.90;1.90;96719.00;;;;5039553;28;20444;-65
2023/01/26 12:42:42;;;;;;;13.73;7.43;;;1.00;99.90;2.10;96712.00;;;;5042847;28;20455;-63
2023/01/26 12:45:38;;;;;;;11.30;6.83;;;1.00;99.90;2.10;96701.00;;;;5039602;28;20440;-64
2023/01/26 12:48:44;;;;;;;14.47;7.93;;;1.10;99.90;2.00;96698.00;;;;5044762;28;20950;-65
2023/01/26 12:51:39;;;;;;;10.37;6.27;;;1.10;99.90;1.90;96705.00;;;;5039907;28;20805;-63
2023/01/26 12:54:38;;;;;;;11.10;7.73;;;1.00;99.90;2.30;96695.00;;;;5033307;28;20463;-65
2023/01/26 12:57:36;;;;;;;11.60;7.27;;;1.20;99.90;2.40;96701.00;;;;5042522;28;20444;-64
2023/01/26 13:00:29;;;;;;;11.50;8.47;;;1.20;99.90;2.40;96707.00;;;;5041118;28;20431;-65
2023/01/26 13:03:24;;;;;;;14.47;8.60;;;1.20;99.90;2.50;96699.00;;;;5046471;28;20431;-64
2023/01/26 13:06:23;;;;;;;12.27;7.67;;;1.20;99.90;2.70;96700.00;;;;5034727;28;20499;-65
2023/01/26 13:09:23;;;;;;;10.83;8.67;;;1.30;99.90;2.80;96693.00;;;;5044370;28;20423;-65
2023/01/26 13:12:47;;;;;;;13.17;8.17;;;1.40;99.90;3.00;96697.00;;;;5033984;28;20428;-64
2023/01/26 13:15:36;;;;;;;10.20;7.40;;;1.50;99.90;3.00;96702.00;;;;5042758;28;20439;-65
2023/01/26 13:18:53;;;;;;;11.90;7.50;;;1.50;99.90;3.10;96695.00;;;;5049021;28;20435;-65
2023/01/26 13:21:44;;;;;;;9.73;7.40;;;1.60;99.90;3.10;96701.00;;;;5047843;28;20431;-65
2023/01/26 13:24:45;;;;;;;11.73;7.23;;;1.60;99.90;3.10;96699.00;;;;5049432;28;20455;-65
2023/01/26 13:27:44;;;;;;;14.23;9.00;;;1.70;99.90;3.20;96700.00;;;;5047889;28;20463;-64
2023/01/26 13:30:43;;;;;;;12.13;8.37;;;1.70;99.90;3.20;96703.00;;;;5039798;28;20475;-64
2023/01/26 13:33:32;;;;;;;13.83;9.47;;;1.70;99.90;3.20;96697.00;;;;5043619;28;20428;-64
2023/01/26 13:36:24;;;;;;;13.37;8.87;;;1.70;99.90;3.00;96692.00;;;;5046776;28;20513;-65
2023/01/26 13:39:20;;;;;;;9.47;7.37;;;1.70;99.90;2.60;96694.00;;;;5045045;28;20428;-65
2023/01/26 13:42:20;;;;;;;12.43;7.30;;;1.70;99.90;2.70;96696.00;;;;5036904;28;20477;-63
2023/01/26 13:45:20;;;;;;;12.37;8.10;;;1.70;99.90;2.60;96694.00;;;;5049153;28;20946;-64
2023/01/26 13:48:15;;;;;;;14.60;8.00;;;1.60;99.90;2.70;96686.00;;;;5036836;28;20464;-64